Maya — JD2830 — position and weather

sailwx.info

Track history (hours):
 
Tides and Currents Weather Stations Pressure Air Temp Water Temp Dewpoint Dewpoint Depression Visibility Wind Speed Wind Dir Waves Ship Positions

Maya

Last reported at 2018-Feb-22 22:31 UTC. Time now 2018-Feb-22 22:59 UTC.
Position N 34°36' E 135°02'.

Length 90 m; draft 3.6 m.

Type: Cargo ship. MMSI: 431000776.

Date/timePositionNaut miles runAvg speedWind from/ knotsBaromVisibWave heightAir tempDewpointWater temp
2018-Feb-22 22:31N 34°36' E 135°02'713.0
2018-Feb-22 22:00N 34°35' E 134°54'713.4
2018-Feb-22 21:30N 34°32' E 134°47'612.9
2018-Feb-22 21:00N 34°30' E 134°40'612.8
2018-Feb-22 20:30N 34°27' E 134°32'612.8
2018-Feb-22 20:00N 34°25' E 134°25'712.7
2018-Feb-22 19:29N 34°23' E 134°17'612.9
2018-Feb-22 18:59N 34°25' E 134°10'7312.3
2018-Feb-22 13:01N 34°07' E 132°44'112.0
2018-Feb-22 12:55N 34°06' E 132°43'512.3
2018-Feb-22 12:31N 34°04' E 132°37'711.3
2018-Feb-22 11:54N 34°04' E 132°29'512.3
2018-Feb-22 11:30N 34°07' E 132°24'612.5
2018-Feb-22 11:01N 34°10' E 132°17'3 5.6
2018-Feb-22 10:29N 34°11' E 132°14'0 0.0
2018-Feb-22 09:59N 34°11' E 132°14'1 1.1
2018-Feb-22 09:30N 34°11' E 132°15'612.8
2018-Feb-22 09:00N 34°15' E 132°21'712.9
2018-Feb-22 08:29N 34°20' E 132°26'0 1.0
2018-Feb-22 07:59N 34°21' E 132°26'0 0.0
2018-Feb-22 07:29N 34°21' E 132°26'0 0.0
2018-Feb-22 06:59N 34°21' E 132°26'1 1.7
2018-Feb-22 06:30N 34°20' E 132°27'3 6.5
2018-Feb-22 06:01N 34°21' E 132°31'0 0.0
2018-Feb-22 05:30N 34°21' E 132°31'0 0.0
2018-Feb-22 05:00N 34°21' E 132°31'0 0.0
2018-Feb-22 04:30N 34°21' E 132°31'0 0.2
2018-Feb-22 04:01N 34°21' E 132°30'5 9.4
2018-Feb-22 03:30N 34°16' E 132°30'612.4
2018-Feb-22 03:00N 34°10' E 132°29'611.0
2018-Feb-22 02:30N 34°05' E 132°27'711.2
2018-Feb-22 01:52N 34°04' E 132°35'412.1
2018-Feb-22 01:30N 34°05' E 132°40'7212.1
2018-Feb-21 19:32N 34°27' E 134°03'110.6
2018-Feb-21 19:28N 34°27' E 134°04'611.1
2018-Feb-21 18:57N 34°25' E 134°11'711.4
2018-Feb-21 18:21N 34°24' E 134°19'412.5
2018-Feb-21 18:00N 34°26' E 134°24'612.7
2018-Feb-21 17:31N 34°28' E 134°31'612.8
2018-Feb-21 17:00N 34°30' E 134°38'613.2
2018-Feb-21 16:31N 34°33' E 134°45'714.3
2018-Feb-21 16:00N 34°36' E 134°53'713.9
2018-Feb-21 15:30N 34°37' E 135°02'612.9
2018-Feb-21 15:00N 34°36' E 135°09'713.1
2018-Feb-21 14:30N 34°37' E 135°17'611.9
2018-Feb-21 14:00N 34°37' E 135°24'0 0.9
2018-Feb-21 13:29N 34°38' E 135°25'0 0.0
2018-Feb-21 12:59N 34°38' E 135°25'0 0.8
2018-Feb-21 12:30N 34°38' E 135°25'510.3
2018-Feb-21 12:00N 34°37' E 135°18'4 8.1
2018-Feb-21 11:30N 34°40' E 135°14'0 0.0
2018-Feb-21 10:58N 34°40' E 135°14'0 0.0
2018-Feb-21 10:28N 34°40' E 135°14'0 0.0
2018-Feb-21 09:58N 34°40' E 135°14'0 0.0
2018-Feb-21 09:28N 34°40' E 135°14'0 0.0
2018-Feb-21 08:55N 34°40' E 135°14'2 3.6
2018-Feb-21 08:30N 34°39' E 135°16'510.9
2018-Feb-21 08:01N 34°36' E 135°11'611.4
2018-Feb-21 07:30N 34°35' E 135°04'612.7
2018-Feb-21 07:00N 34°36' E 134°56'612.5
2018-Feb-21 06:30N 34°33' E 134°49'611.6
2018-Feb-21 06:00N 34°31' E 134°43'611.5
2018-Feb-21 05:31N 34°29' E 134°36'611.4
2018-Feb-21 05:01N 34°26' E 134°30'611.5
2018-Feb-21 04:30N 34°24' E 134°23'611.1
2018-Feb-21 03:59N 34°24' E 134°16'73 9.7
2018-Feb-20 20:26N 34°05' E 132°50'510.7
2018-Feb-20 20:00N 34°02' E 132°47'510.3
2018-Feb-20 19:30N 33°57' E 132°43'510.2
2018-Feb-20 18:59N 33°54' E 132°38'510.4
2018-Feb-20 18:30N 33°52' E 132°33'711.3
2018-Feb-20 17:55N 33°50' E 132°25'611.1
2018-Feb-20 17:25N 33°50' E 132°18'511.8
2018-Feb-20 17:00N 33°49' E 132°12'611.5
2018-Feb-20 16:30N 33°47' E 132°06'611.6
2018-Feb-20 16:01N 33°45' E 131°60'611.9
2018-Feb-20 15:30N 33°46' E 131°52'611.9
2018-Feb-20 15:00N 33°47' E 131°45'611.8
2018-Feb-20 14:30N 33°48' E 131°38'611.5
2018-Feb-20 14:00N 33°49' E 131°32'611.4
2018-Feb-20 13:30N 33°50' E 131°25'611.1
2018-Feb-20 13:00N 33°52' E 131°18'510.7
2018-Feb-20 12:30N 33°53' E 131°12'610.9
2018-Feb-20 11:59N 33°56' E 131°06'510.7
2018-Feb-20 11:30N 33°58' E 131°01'0 0.3
2018-Feb-20 10:57N 33°58' E 131°00'0 0.0
2018-Feb-20 10:30N 33°58' E 131°00'0 0.0
2018-Feb-20 10:00N 33°58' E 131°00'0 0.0
2018-Feb-20 09:30N 33°58' E 131°00'0 0.0
2018-Feb-20 09:01N 33°58' E 131°00'0 0.8
2018-Feb-20 08:31N 33°58' E 131°01'2 3.7
2018-Feb-20 08:00N 33°57' E 131°03'1 2.8
2018-Feb-20 07:31N 33°55' E 131°03'1 1.2
2018-Feb-20 07:01N 33°56' E 131°03'1 2.3
2018-Feb-20 06:30N 33°55' E 131°04'3 6.8
2018-Feb-20 06:01N 33°55' E 131°08'4 7.1
2018-Feb-20 05:30N 33°55' E 131°12'2 3.5
2018-Feb-20 05:01N 33°56' E 131°14'0 0.0
2018-Feb-20 04:30N 33°56' E 131°14'0 0.0
2018-Feb-20 04:00N 33°56' E 131°14'0 0.0
2018-Feb-20 03:27N 33°56' E 131°14'0 0.0
2018-Feb-20 03:00N 33°56' E 131°14'0 0.0
2018-Feb-20 02:30N 33°56' E 131°14'1 1.6
2018-Feb-20 02:00N 33°56' E 131°13'611.4
2018-Feb-20 01:30N 33°56' E 131°06'611.5
2018-Feb-20 01:01N 33°58' E 131°00'510.2
2018-Feb-20 00:31N 33°55' E 130°56'510.1
2018-Feb-20 00:00N 33°57' E 130°51'4 8.2
2018-Feb-19 23:30N 33°56' E 130°46'0 0.0
2018-Feb-19 22:58N 33°56' E 130°46'0 0.0
2018-Feb-19 22:30N 33°56' E 130°46'3 6.9
2018-Feb-19 22:00N 33°58' E 130°49'510.0
2018-Feb-19 21:31N 33°55' E 130°54'4 7.6
2018-Feb-19 21:00N 33°58' E 130°57'4 7.9
2018-Feb-19 20:30N 33°58' E 131°02'611.7
2018-Feb-19 20:00N 33°55' E 131°08'611.8
2018-Feb-19 19:30N 33°52' E 131°14'611.8
2018-Feb-19 19:00N 33°51' E 131°21'611.9
2018-Feb-19 18:30N 33°50' E 131°28'611.8
2018-Feb-19 18:00N 33°48' E 131°35'611.7
2018-Feb-19 17:30N 33°47' E 131°42'612.0
2018-Feb-19 17:00N 33°46' E 131°49'612.1
2018-Feb-19 16:29N 33°45' E 131°56'612.3
2018-Feb-19 16:00N 33°46' E 132°04'612.9
2018-Feb-19 15:30N 33°49' E 132°10'612.4
2018-Feb-19 14:59N 33°50' E 132°18'611.7
2018-Feb-19 14:28N 33°52' E 132°25'511.9
2018-Feb-19 14:00N 33°56' E 132°30'611.6
2018-Feb-19 13:30N 33°60' E 132°35'8511.7
2018-Feb-19 06:17N 34°25' E 134°13'311.7
2018-Feb-19 05:59N 34°25' E 134°17'612.6
2018-Feb-19 05:30N 34°26' E 134°24'613.0
2018-Feb-19 05:01N 34°29' E 134°32'713.1
2018-Feb-19 04:30N 34°32' E 134°39'713.6
2018-Feb-19 04:01N 34°34' E 134°47'714.4
2018-Feb-19 03:30N 34°36' E 134°55'713.2
2018-Feb-19 03:01N 34°37' E 135°03'713.4
2018-Feb-19 02:30N 34°37' E 135°11'4 7.6
2018-Feb-19 02:00N 34°40' E 135°14'0 0.4
2018-Feb-19 01:30N 34°40' E 135°14'0 0.0
2018-Feb-19 01:00N 34°40' E 135°14'0 0.0
2018-Feb-19 00:30N 34°40' E 135°14'0 0.0
2018-Feb-19 00:00N 34°40' E 135°14'0 0.0
2018-Feb-18 23:30N 34°40' E 135°14'1 1.5
2018-Feb-18 23:00N 34°40' E 135°15'2 3.6
2018-Feb-18 22:29N 34°41' E 135°13'0 0.0
2018-Feb-18 21:59N 34°41' E 135°13'0 0.0
2018-Feb-18 21:29N 34°41' E 135°13'0 0.0
2018-Feb-18 20:59N 34°41' E 135°13'0 0.0
2018-Feb-18 20:29N 34°41' E 135°13'0 0.0
2018-Feb-18 19:59N 34°41' E 135°13'0 0.0
2018-Feb-18 19:29N 34°41' E 135°13'0 0.0
2018-Feb-18 18:59N 34°41' E 135°13'0 0.0
2018-Feb-18 18:29N 34°41' E 135°13'0 0.0
2018-Feb-18 17:59N 34°41' E 135°13'0 0.0
2018-Feb-18 17:29N 34°41' E 135°13'0 0.0
2018-Feb-18 16:59N 34°41' E 135°13'0 0.0
2018-Feb-18 16:29N 34°41' E 135°13'0 0.0
2018-Feb-18 15:59N 34°41' E 135°13'0 0.0
2018-Feb-18 15:29N 34°41' E 135°13'0 0.0
2018-Feb-18 14:59N 34°41' E 135°13'0 0.0
2018-Feb-18 14:29N 34°41' E 135°13'0 0.0
2018-Feb-18 13:59N 34°41' E 135°13'0 0.0
2018-Feb-18 13:29N 34°41' E 135°13'0 0.0
2018-Feb-18 12:59N 34°41' E 135°13'0 0.0
2018-Feb-18 12:29N 34°41' E 135°13'0 0.0
2018-Feb-18 11:59N 34°41' E 135°13'0 0.0
2018-Feb-18 11:26N 34°41' E 135°13'0 0.0
2018-Feb-18 10:59N 34°41' E 135°13'0 0.0
2018-Feb-18 10:29N 34°41' E 135°13'0 0.0
2018-Feb-18 09:59N 34°41' E 135°13'0 0.0
2018-Feb-18 09:29N 34°41' E 135°13'0 0.0
2018-Feb-18 08:59N 34°41' E 135°13'0 0.0
2018-Feb-18 08:29N 34°41' E 135°13'0 0.0
2018-Feb-18 07:59N 34°41' E 135°13'0 0.0
2018-Feb-18 07:29N 34°41' E 135°13'0 0.0
2018-Feb-18 06:59N 34°41' E 135°13'0 0.0
2018-Feb-18 06:29N 34°41' E 135°13'0 0.0
2018-Feb-18 05:59N 34°41' E 135°13'0 0.0
2018-Feb-18 05:29N 34°41' E 135°13'0 0.0
2018-Feb-18 04:59N 34°41' E 135°13'0 0.0
2018-Feb-18 04:29N 34°41' E 135°13'0 0.0
2018-Feb-18 03:59N 34°41' E 135°13'0 0.0
2018-Feb-18 03:29N 34°41' E 135°13'0 0.0
2018-Feb-18 02:59N 34°41' E 135°13'0 0.0
2018-Feb-18 02:29N 34°41' E 135°13'0 0.0
2018-Feb-18 01:59N 34°41' E 135°13'0 0.0
2018-Feb-18 01:29N 34°41' E 135°13'0 0.0
2018-Feb-18 00:59N 34°41' E 135°13'0 0.0
2018-Feb-18 00:29N 34°41' E 135°13'0 0.0
2018-Feb-17 23:59N 34°41' E 135°13'0 0.0
2018-Feb-17 23:29N 34°41' E 135°13'0 0.0
2018-Feb-17 22:59N 34°41' E 135°13'0 0.0
2018-Feb-17 22:29N 34°41' E 135°13'0 0.1
2018-Feb-17 22:00N 34°41' E 135°13'4 7.8
2018-Feb-17 21:30N 34°39' E 135°16'3 5.5
2018-Feb-17 21:00N 34°36' E 135°14'3 5.7
2018-Feb-17 20:30N 34°36' E 135°11'612.1
2018-Feb-17 20:01N 34°36' E 135°03'612.8
2018-Feb-17 19:31N 34°36' E 134°55'713.6
2018-Feb-17 19:00N 34°33' E 134°48'612.4
2018-Feb-17 18:30N 34°30' E 134°41'611.9
2018-Feb-17 18:00N 34°28' E 134°34'611.8
2018-Feb-17 17:30N 34°26' E 134°28'612.0
2018-Feb-17 17:00N 34°23' E 134°21'612.7
2018-Feb-17 16:30N 34°24' E 134°13'7911.8
2018-Feb-17 09:50N 34°09' E 132°40'411.3
2018-Feb-17 09:29N 34°10' E 132°35'4 8.2
2018-Feb-17 09:01N 34°13' E 132°32'611.8
2018-Feb-17 08:31N 34°18' E 132°29'3 6.5
2018-Feb-17 08:00N 34°21' E 132°26'0 0.0
2018-Feb-17 07:29N 34°21' E 132°26'0 0.3
2018-Feb-17 07:00N 34°21' E 132°26'3 6.5
2018-Feb-17 06:30N 34°21' E 132°30'0 0.8
2018-Feb-17 05:59N 34°21' E 132°31'0 0.0
2018-Feb-17 05:29N 34°21' E 132°31'2 3.4
2018-Feb-17 05:00N 34°20' E 132°29'611.1
2018-Feb-17 04:30N 34°17' E 132°24'510.9
2018-Feb-17 04:00N 34°13' E 132°19'4 5.7
2018-Feb-17 03:15N 34°11' E 132°14'0 0.2
2018-Feb-17 03:00N 34°11' E 132°14'0 0.0
2018-Feb-17 02:30N 34°11' E 132°14'0 0.2
2018-Feb-17 02:00N 34°11' E 132°14'510.4
2018-Feb-17 01:30N 34°09' E 132°20'711.8
2018-Feb-17 00:56N 34°05' E 132°27'810.2
2018-Feb-17 00:11N 34°04' E 132°36'210.5
2018-Feb-17 00:00N 34°05' E 132°38'7410.2
2018-Feb-16 16:46N 34°27' E 134°03'8 9.6
2018-Feb-16 15:53N 34°24' E 134°13'410.3
2018-Feb-16 15:29N 34°24' E 134°18'511.1
2018-Feb-16 15:00N 34°26' E 134°24'611.4
2018-Feb-16 14:30N 34°28' E 134°30'611.9
2018-Feb-16 14:00N 34°30' E 134°37'612.5
2018-Feb-16 13:30N 34°33' E 134°44'713.4
2018-Feb-16 13:00N 34°35' E 134°52'713.8
2018-Feb-16 12:30N 34°38' E 134°59'713.5
2018-Feb-16 12:00N 34°36' E 135°08'612.5
2018-Feb-16 11:31N 34°38' E 135°15'1 2.8
2018-Feb-16 11:00N 34°39' E 135°15'0 0.0
2018-Feb-16 10:30N 34°39' E 135°15'0 0.0
2018-Feb-16 10:00N 34°39' E 135°15'0 0.0
2018-Feb-16 09:30N 34°39' E 135°15'0 0.0
2018-Feb-16 09:00N 34°39' E 135°15'0 0.0
2018-Feb-16 08:30N 34°39' E 135°15'0 0.0
2018-Feb-16 08:00N 34°39' E 135°15'0 0.0
2018-Feb-16 07:30N 34°39' E 135°15'2 4.2
2018-Feb-16 07:00N 34°38' E 135°16'1 1.1
2018-Feb-16 06:30N 34°37' E 135°16'0 0.9
2018-Feb-16 06:00N 34°37' E 135°15'611.3
2018-Feb-16 05:31N 34°35' E 135°09'714.4
2018-Feb-16 05:01N 34°37' E 135°00'815.0
2018-Feb-16 04:31N 34°34' E 134°52'713.2
2018-Feb-16 04:01N 34°32' E 134°44'713.1
2018-Feb-16 03:30N 34°29' E 134°37'713.1
2018-Feb-16 03:00N 34°27' E 134°30'713.2
2018-Feb-16 02:30N 34°24' E 134°22'612.8
2018-Feb-16 02:00N 34°24' E 134°15'1711.4
2018-Feb-16 00:32N 34°24' E 133°54'010.7
2018-Feb-16 00:29N 34°23' E 133°54'711.3
2018-Feb-15 23:50N 34°20' E 133°46'911.7
2018-Feb-15 23:05N 34°17' E 133°36'212.7
2018-Feb-15 22:55N 34°16' E 133°33'3811.3
2018-Feb-15 19:32N 34°06' E 132°49'111.4
2018-Feb-15 19:29N 34°05' E 132°48'611.8
2018-Feb-15 19:01N 34°00' E 132°45'510.9
2018-Feb-15 18:30N 33°56' E 132°41'511.0
2018-Feb-15 18:00N 33°53' E 132°35'611.4
2018-Feb-15 17:27N 33°51' E 132°28'511.5
2018-Feb-15 17:00N 33°50' E 132°22'612.0
2018-Feb-15 16:27N 33°50' E 132°14'511.9
2018-Feb-15 16:00N 33°48' E 132°08'612.2
2018-Feb-15 15:31N 33°45' E 132°02'713.6
2018-Feb-15 15:00N 33°46' E 131°53'714.0
2018-Feb-15 14:30N 33°47' E 131°45'714.1
2018-Feb-15 14:00N 33°49' E 131°37'714.0
2018-Feb-15 13:30N 33°50' E 131°29'713.4
2018-Feb-15 13:00N 33°51' E 131°21'613.2
2018-Feb-15 12:30N 33°53' E 131°13'613.0
2018-Feb-15 12:00N 33°55' E 131°06'5 9.6
2018-Feb-15 11:30N 33°58' E 131°01'0 0.0
2018-Feb-15 11:00N 33°58' E 131°01'0 0.0
2018-Feb-15 10:30N 33°58' E 131°01'0 0.0
2018-Feb-15 10:00N 33°58' E 131°01'4 8.6
2018-Feb-15 09:30N 33°56' E 131°05'713.1
2018-Feb-15 08:59N 33°53' E 131°13'612.1
2018-Feb-15 08:30N 33°54' E 131°19'713.0
2018-Feb-15 08:00N 33°57' E 131°27'612.7
2018-Feb-15 07:30N 33°60' E 131°33'1 1.4
2018-Feb-15 06:55N 34°01' E 131°34'0 0.0
2018-Feb-15 06:25N 34°01' E 131°34'0 0.0
2018-Feb-15 05:49N 34°01' E 131°34'0 0.2
2018-Feb-15 05:30N 34°01' E 131°34'3 6.3
2018-Feb-15 05:00N 33°58' E 131°35'511.0
2018-Feb-15 04:30N 33°55' E 131°41'610.9
2018-Feb-15 04:00N 33°51' E 131°46'610.8
2018-Feb-15 03:27N 33°48' E 131°52'510.8
2018-Feb-15 03:00N 33°46' E 131°57'611.3
2018-Feb-15 02:30N 33°46' E 132°04'711.8
2018-Feb-15 01:56N 33°49' E 132°11'511.4
2018-Feb-15 01:30N 33°50' E 132°17'611.5
2018-Feb-15 01:00N 33°51' E 132°24'510.9
2018-Feb-15 00:30N 33°55' E 132°29'510.6
2018-Feb-14 23:59N 33°58' E 132°34'510.9
2018-Feb-14 23:29N 34°02' E 132°39'7210.2
2018-Feb-14 16:28N 34°26' E 134°01'7 9.4
2018-Feb-14 15:46N 34°26' E 134°09'3 9.9
2018-Feb-14 15:28N 34°25' E 134°12'510.1
2018-Feb-14 15:00N 34°25' E 134°18'611.4
2018-Feb-14 14:30N 34°27' E 134°24'611.8
2018-Feb-14 14:00N 34°29' E 134°31'611.6
2018-Feb-14 13:30N 34°31' E 134°38'611.7
2018-Feb-14 13:00N 34°33' E 134°44'612.2
2018-Feb-14 12:30N 34°35' E 134°51'612.6
2018-Feb-14 12:00N 34°37' E 134°58'612.2
2018-Feb-14 11:30N 34°36' E 135°06'612.0
2018-Feb-14 11:00N 34°37' E 135°13'2 5.0
2018-Feb-14 10:30N 34°39' E 135°15'0 0.0
2018-Feb-14 09:58N 34°39' E 135°15'0 0.0
2018-Feb-14 09:28N 34°39' E 135°15'0 0.0
2018-Feb-14 08:58N 34°39' E 135°15'0 0.0
2018-Feb-14 08:28N 34°39' E 135°15'0 0.0
2018-Feb-14 07:58N 34°39' E 135°15'0 0.0
2018-Feb-14 07:28N 34°39' E 135°15'0 0.0
2018-Feb-14 06:58N 34°39' E 135°15'0 0.0
2018-Feb-14 06:28N 34°39' E 135°15'0 0.0
2018-Feb-14 06:00N 34°39' E 135°15'1 2.7
2018-Feb-14 05:31N 34°38' E 135°16'611.5
2018-Feb-14 05:00N 34°36' E 135°10'611.8
2018-Feb-14 04:31N 34°36' E 135°03'713.0
2018-Feb-14 04:00N 34°35' E 134°55'612.5
2018-Feb-14 03:30N 34°33' E 134°48'611.6
2018-Feb-14 03:00N 34°31' E 134°41'612.0
2018-Feb-14 02:30N 34°28' E 134°35'611.9
2018-Feb-14 02:00N 34°26' E 134°28'611.8
2018-Feb-14 01:30N 34°24' E 134°21'611.7
2018-Feb-14 00:57N 34°24' E 134°13'72 9.9
2018-Feb-13 17:41N 34°04' E 132°49'210.9
2018-Feb-13 17:29N 34°03' E 132°48'510.5
2018-Feb-13 16:59N 33°58' E 132°44'5 9.8
2018-Feb-13 16:30N 33°55' E 132°40'510.0
2018-Feb-13 16:00N 33°53' E 132°35'610.8
2018-Feb-13 15:27N 33°51' E 132°28'510.7
2018-Feb-13 15:00N 33°50' E 132°22'711.0
2018-Feb-13 14:21N 33°49' E 132°13'410.8
2018-Feb-13 14:00N 33°48' E 132°09'511.1
2018-Feb-13 13:30N 33°46' E 132°03'611.8
2018-Feb-13 12:58N 33°46' E 131°56'511.9
2018-Feb-13 12:30N 33°46' E 131°49'612.0
2018-Feb-13 12:00N 33°47' E 131°42'612.0
2018-Feb-13 11:30N 33°48' E 131°35'611.7
2018-Feb-13 11:00N 33°50' E 131°28'611.4
2018-Feb-13 10:30N 33°51' E 131°21'510.9
2018-Feb-13 10:00N 33°52' E 131°15'4 8.2
2018-Feb-13 09:30N 33°56' E 131°14'0 0.0
2018-Feb-13 08:59N 33°56' E 131°14'0 0.0
2018-Feb-13 08:29N 33°56' E 131°14'0 0.0
2018-Feb-13 07:59N 33°56' E 131°14'0 0.0
2018-Feb-13 07:29N 33°56' E 131°14'0 0.0
2018-Feb-13 06:59N 33°56' E 131°14'3 5.4
2018-Feb-13 06:30N 33°55' E 131°11'611.8
2018-Feb-13 06:00N 33°56' E 131°04'4 7.5
2018-Feb-13 05:30N 33°58' E 131°00'0 0.0
2018-Feb-13 05:00N 33°58' E 131°00'0 0.0
2018-Feb-13 04:27N 33°58' E 131°00'0 0.0
2018-Feb-13 04:00N 33°58' E 131°00'0 0.0
2018-Feb-13 03:30N 33°58' E 131°00'2 4.9
2018-Feb-13 03:00N 33°57' E 130°57'4 8.3
2018-Feb-13 02:31N 33°55' E 130°54'611.4
2018-Feb-13 02:00N 33°57' E 130°48'2 4.0
2018-Feb-13 01:30N 33°56' E 130°46'2 3.4
2018-Feb-13 01:00N 33°57' E 130°47'510.3
2018-Feb-13 00:30N 33°56' E 130°53'510.3
2018-Feb-13 00:00N 33°58' E 130°58'612.0
2018-Feb-12 23:30N 33°57' E 131°05'611.9
2018-Feb-12 23:00N 33°54' E 131°11'  
Track history (hours):
 
Tides and Currents Weather Stations Pressure Air Temp Water Temp Dewpoint Dewpoint Depression Visibility Wind Speed Wind Dir Waves Ship Positions

Maya

Last reported at 2018-Feb-22 22:31 UTC. Time now 2018-Feb-22 22:59 UTC.
Position N 34°36' E 135°02'.

Length 90 m; draft 3.6 m.

Type: Cargo ship. MMSI: 431000776.

Date/timePositionNaut miles runAvg speedWind from/ knotsBaromVisibWave heightAir tempDewpointWater temp
2018-Feb-22 22:31N 34°36' E 135°02'713.0
2018-Feb-22 22:00N 34°35' E 134°54'713.4
2018-Feb-22 21:30N 34°32' E 134°47'612.9
2018-Feb-22 21:00N 34°30' E 134°40'612.8
2018-Feb-22 20:30N 34°27' E 134°32'612.8
2018-Feb-22 20:00N 34°25' E 134°25'712.7
2018-Feb-22 19:29N 34°23' E 134°17'612.9
2018-Feb-22 18:59N 34°25' E 134°10'7312.3
2018-Feb-22 13:01N 34°07' E 132°44'112.0
2018-Feb-22 12:55N 34°06' E 132°43'512.3
2018-Feb-22 12:31N 34°04' E 132°37'711.3
2018-Feb-22 11:54N 34°04' E 132°29'512.3
2018-Feb-22 11:30N 34°07' E 132°24'612.5
2018-Feb-22 11:01N 34°10' E 132°17'3 5.6
2018-Feb-22 10:29N 34°11' E 132°14'0 0.0
2018-Feb-22 09:59N 34°11' E 132°14'1 1.1
2018-Feb-22 09:30N 34°11' E 132°15'612.8
2018-Feb-22 09:00N 34°15' E 132°21'712.9
2018-Feb-22 08:29N 34°20' E 132°26'0 1.0
2018-Feb-22 07:59N 34°21' E 132°26'0 0.0
2018-Feb-22 07:29N 34°21' E 132°26'0 0.0
2018-Feb-22 06:59N 34°21' E 132°26'1 1.7
2018-Feb-22 06:30N 34°20' E 132°27'3 6.5
2018-Feb-22 06:01N 34°21' E 132°31'0 0.0
2018-Feb-22 05:30N 34°21' E 132°31'0 0.0
2018-Feb-22 05:00N 34°21' E 132°31'0 0.0
2018-Feb-22 04:30N 34°21' E 132°31'0 0.2
2018-Feb-22 04:01N 34°21' E 132°30'5 9.4
2018-Feb-22 03:30N 34°16' E 132°30'612.4
2018-Feb-22 03:00N 34°10' E 132°29'611.0
2018-Feb-22 02:30N 34°05' E 132°27'711.2
2018-Feb-22 01:52N 34°04' E 132°35'412.1
2018-Feb-22 01:30N 34°05' E 132°40'7212.1
2018-Feb-21 19:32N 34°27' E 134°03'110.6
2018-Feb-21 19:28N 34°27' E 134°04'611.1
2018-Feb-21 18:57N 34°25' E 134°11'711.4
2018-Feb-21 18:21N 34°24' E 134°19'412.5
2018-Feb-21 18:00N 34°26' E 134°24'612.7
2018-Feb-21 17:31N 34°28' E 134°31'612.8
2018-Feb-21 17:00N 34°30' E 134°38'613.2
2018-Feb-21 16:31N 34°33' E 134°45'714.3
2018-Feb-21 16:00N 34°36' E 134°53'713.9
2018-Feb-21 15:30N 34°37' E 135°02'612.9
2018-Feb-21 15:00N 34°36' E 135°09'713.1
2018-Feb-21 14:30N 34°37' E 135°17'611.9
2018-Feb-21 14:00N 34°37' E 135°24'0 0.9
2018-Feb-21 13:29N 34°38' E 135°25'0 0.0
2018-Feb-21 12:59N 34°38' E 135°25'0 0.8
2018-Feb-21 12:30N 34°38' E 135°25'510.3
2018-Feb-21 12:00N 34°37' E 135°18'4 8.1
2018-Feb-21 11:30N 34°40' E 135°14'0 0.0
2018-Feb-21 10:58N 34°40' E 135°14'0 0.0
2018-Feb-21 10:28N 34°40' E 135°14'0 0.0
2018-Feb-21 09:58N 34°40' E 135°14'0 0.0
2018-Feb-21 09:28N 34°40' E 135°14'0 0.0
2018-Feb-21 08:55N 34°40' E 135°14'2 3.6
2018-Feb-21 08:30N 34°39' E 135°16'510.9
2018-Feb-21 08:01N 34°36' E 135°11'611.4
2018-Feb-21 07:30N 34°35' E 135°04'612.7
2018-Feb-21 07:00N 34°36' E 134°56'612.5
2018-Feb-21 06:30N 34°33' E 134°49'611.6
2018-Feb-21 06:00N 34°31' E 134°43'611.5
2018-Feb-21 05:31N 34°29' E 134°36'611.4
2018-Feb-21 05:01N 34°26' E 134°30'611.5
2018-Feb-21 04:30N 34°24' E 134°23'611.1
2018-Feb-21 03:59N 34°24' E 134°16'73 9.7
2018-Feb-20 20:26N 34°05' E 132°50'510.7
2018-Feb-20 20:00N 34°02' E 132°47'510.3
2018-Feb-20 19:30N 33°57' E 132°43'510.2
2018-Feb-20 18:59N 33°54' E 132°38'510.4
2018-Feb-20 18:30N 33°52' E 132°33'711.3
2018-Feb-20 17:55N 33°50' E 132°25'611.1
2018-Feb-20 17:25N 33°50' E 132°18'511.8
2018-Feb-20 17:00N 33°49' E 132°12'611.5
2018-Feb-20 16:30N 33°47' E 132°06'611.6
2018-Feb-20 16:01N 33°45' E 131°60'611.9
2018-Feb-20 15:30N 33°46' E 131°52'611.9
2018-Feb-20 15:00N 33°47' E 131°45'611.8
2018-Feb-20 14:30N 33°48' E 131°38'611.5
2018-Feb-20 14:00N 33°49' E 131°32'611.4
2018-Feb-20 13:30N 33°50' E 131°25'611.1
2018-Feb-20 13:00N 33°52' E 131°18'510.7
2018-Feb-20 12:30N 33°53' E 131°12'610.9
2018-Feb-20 11:59N 33°56' E 131°06'510.7
2018-Feb-20 11:30N 33°58' E 131°01'0 0.3
2018-Feb-20 10:57N 33°58' E 131°00'0 0.0
2018-Feb-20 10:30N 33°58' E 131°00'0 0.0
2018-Feb-20 10:00N 33°58' E 131°00'0 0.0
2018-Feb-20 09:30N 33°58' E 131°00'0 0.0
2018-Feb-20 09:01N 33°58' E 131°00'0 0.8
2018-Feb-20 08:31N 33°58' E 131°01'2 3.7
2018-Feb-20 08:00N 33°57' E 131°03'1 2.8
2018-Feb-20 07:31N 33°55' E 131°03'1 1.2
2018-Feb-20 07:01N 33°56' E 131°03'1 2.3
2018-Feb-20 06:30N 33°55' E 131°04'3 6.8
2018-Feb-20 06:01N 33°55' E 131°08'4 7.1
2018-Feb-20 05:30N 33°55' E 131°12'2 3.5
2018-Feb-20 05:01N 33°56' E 131°14'0 0.0
2018-Feb-20 04:30N 33°56' E 131°14'0 0.0
2018-Feb-20 04:00N 33°56' E 131°14'0 0.0
2018-Feb-20 03:27N 33°56' E 131°14'0 0.0
2018-Feb-20 03:00N 33°56' E 131°14'0 0.0
2018-Feb-20 02:30N 33°56' E 131°14'1 1.6
2018-Feb-20 02:00N 33°56' E 131°13'611.4
2018-Feb-20 01:30N 33°56' E 131°06'611.5
2018-Feb-20 01:01N 33°58' E 131°00'510.2
2018-Feb-20 00:31N 33°55' E 130°56'510.1
2018-Feb-20 00:00N 33°57' E 130°51'4 8.2
2018-Feb-19 23:30N 33°56' E 130°46'0 0.0
2018-Feb-19 22:58N 33°56' E 130°46'0 0.0
2018-Feb-19 22:30N 33°56' E 130°46'3 6.9
2018-Feb-19 22:00N 33°58' E 130°49'510.0
2018-Feb-19 21:31N 33°55' E 130°54'4 7.6
2018-Feb-19 21:00N 33°58' E 130°57'4 7.9
2018-Feb-19 20:30N 33°58' E 131°02'611.7
2018-Feb-19 20:00N 33°55' E 131°08'611.8
2018-Feb-19 19:30N 33°52' E 131°14'611.8
2018-Feb-19 19:00N 33°51' E 131°21'611.9
2018-Feb-19 18:30N 33°50' E 131°28'611.8
2018-Feb-19 18:00N 33°48' E 131°35'611.7
2018-Feb-19 17:30N 33°47' E 131°42'612.0
2018-Feb-19 17:00N 33°46' E 131°49'612.1
2018-Feb-19 16:29N 33°45' E 131°56'612.3
2018-Feb-19 16:00N 33°46' E 132°04'612.9
2018-Feb-19 15:30N 33°49' E 132°10'612.4
2018-Feb-19 14:59N 33°50' E 132°18'611.7
2018-Feb-19 14:28N 33°52' E 132°25'511.9
2018-Feb-19 14:00N 33°56' E 132°30'611.6
2018-Feb-19 13:30N 33°60' E 132°35'8511.7
2018-Feb-19 06:17N 34°25' E 134°13'311.7
2018-Feb-19 05:59N 34°25' E 134°17'612.6
2018-Feb-19 05:30N 34°26' E 134°24'613.0
2018-Feb-19 05:01N 34°29' E 134°32'713.1
2018-Feb-19 04:30N 34°32' E 134°39'713.6
2018-Feb-19 04:01N 34°34' E 134°47'714.4
2018-Feb-19 03:30N 34°36' E 134°55'713.2
2018-Feb-19 03:01N 34°37' E 135°03'713.4
2018-Feb-19 02:30N 34°37' E 135°11'4 7.6
2018-Feb-19 02:00N 34°40' E 135°14'0 0.4
2018-Feb-19 01:30N 34°40' E 135°14'0 0.0
2018-Feb-19 01:00N 34°40' E 135°14'0 0.0
2018-Feb-19 00:30N 34°40' E 135°14'0 0.0
2018-Feb-19 00:00N 34°40' E 135°14'0 0.0
2018-Feb-18 23:30N 34°40' E 135°14'1 1.5
2018-Feb-18 23:00N 34°40' E 135°15'2 3.6
2018-Feb-18 22:29N 34°41' E 135°13'0 0.0
2018-Feb-18 21:59N 34°41' E 135°13'0 0.0
2018-Feb-18 21:29N 34°41' E 135°13'0 0.0
2018-Feb-18 20:59N 34°41' E 135°13'0 0.0
2018-Feb-18 20:29N 34°41' E 135°13'0 0.0
2018-Feb-18 19:59N 34°41' E 135°13'0 0.0
2018-Feb-18 19:29N 34°41' E 135°13'0 0.0
2018-Feb-18 18:59N 34°41' E 135°13'0 0.0
2018-Feb-18 18:29N 34°41' E 135°13'0 0.0
2018-Feb-18 17:59N 34°41' E 135°13'0 0.0
2018-Feb-18 17:29N 34°41' E 135°13'0 0.0
2018-Feb-18 16:59N 34°41' E 135°13'0 0.0
2018-Feb-18 16:29N 34°41' E 135°13'0 0.0
2018-Feb-18 15:59N 34°41' E 135°13'0 0.0
2018-Feb-18 15:29N 34°41' E 135°13'0 0.0
2018-Feb-18 14:59N 34°41' E 135°13'0 0.0
2018-Feb-18 14:29N 34°41' E 135°13'0 0.0
2018-Feb-18 13:59N 34°41' E 135°13'0 0.0
2018-Feb-18 13:29N 34°41' E 135°13'0 0.0
2018-Feb-18 12:59N 34°41' E 135°13'0 0.0
2018-Feb-18 12:29N 34°41' E 135°13'0 0.0
2018-Feb-18 11:59N 34°41' E 135°13'0 0.0
2018-Feb-18 11:26N 34°41' E 135°13'0 0.0
2018-Feb-18 10:59N 34°41' E 135°13'0 0.0
2018-Feb-18 10:29N 34°41' E 135°13'0 0.0
2018-Feb-18 09:59N 34°41' E 135°13'0 0.0
2018-Feb-18 09:29N 34°41' E 135°13'0 0.0
2018-Feb-18 08:59N 34°41' E 135°13'0 0.0
2018-Feb-18 08:29N 34°41' E 135°13'0 0.0
2018-Feb-18 07:59N 34°41' E 135°13'0 0.0
2018-Feb-18 07:29N 34°41' E 135°13'0 0.0
2018-Feb-18 06:59N 34°41' E 135°13'0 0.0
2018-Feb-18 06:29N 34°41' E 135°13'0 0.0
2018-Feb-18 05:59N 34°41' E 135°13'0 0.0
2018-Feb-18 05:29N 34°41' E 135°13'0 0.0
2018-Feb-18 04:59N 34°41' E 135°13'0 0.0
2018-Feb-18 04:29N 34°41' E 135°13'0 0.0
2018-Feb-18 03:59N 34°41' E 135°13'0 0.0
2018-Feb-18 03:29N 34°41' E 135°13'0 0.0
2018-Feb-18 02:59N 34°41' E 135°13'0 0.0
2018-Feb-18 02:29N 34°41' E 135°13'0 0.0
2018-Feb-18 01:59N 34°41' E 135°13'0 0.0
2018-Feb-18 01:29N 34°41' E 135°13'0 0.0
2018-Feb-18 00:59N 34°41' E 135°13'0 0.0
2018-Feb-18 00:29N 34°41' E 135°13'0 0.0
2018-Feb-17 23:59N 34°41' E 135°13'0 0.0
2018-Feb-17 23:29N 34°41' E 135°13'0 0.0
2018-Feb-17 22:59N 34°41' E 135°13'0 0.0
2018-Feb-17 22:29N 34°41' E 135°13'0 0.1
2018-Feb-17 22:00N 34°41' E 135°13'4 7.8
2018-Feb-17 21:30N 34°39' E 135°16'3 5.5
2018-Feb-17 21:00N 34°36' E 135°14'3 5.7
2018-Feb-17 20:30N 34°36' E 135°11'612.1
2018-Feb-17 20:01N 34°36' E 135°03'612.8
2018-Feb-17 19:31N 34°36' E 134°55'713.6
2018-Feb-17 19:00N 34°33' E 134°48'612.4
2018-Feb-17 18:30N 34°30' E 134°41'611.9
2018-Feb-17 18:00N 34°28' E 134°34'611.8
2018-Feb-17 17:30N 34°26' E 134°28'612.0
2018-Feb-17 17:00N 34°23' E 134°21'612.7
2018-Feb-17 16:30N 34°24' E 134°13'7911.8
2018-Feb-17 09:50N 34°09' E 132°40'411.3
2018-Feb-17 09:29N 34°10' E 132°35'4 8.2
2018-Feb-17 09:01N 34°13' E 132°32'611.8
2018-Feb-17 08:31N 34°18' E 132°29'3 6.5
2018-Feb-17 08:00N 34°21' E 132°26'0 0.0
2018-Feb-17 07:29N 34°21' E 132°26'0 0.3
2018-Feb-17 07:00N 34°21' E 132°26'3 6.5
2018-Feb-17 06:30N 34°21' E 132°30'0 0.8
2018-Feb-17 05:59N 34°21' E 132°31'0 0.0
2018-Feb-17 05:29N 34°21' E 132°31'2 3.4
2018-Feb-17 05:00N 34°20' E 132°29'611.1
2018-Feb-17 04:30N 34°17' E 132°24'510.9
2018-Feb-17 04:00N 34°13' E 132°19'4 5.7
2018-Feb-17 03:15N 34°11' E 132°14'0 0.2
2018-Feb-17 03:00N 34°11' E 132°14'0 0.0
2018-Feb-17 02:30N 34°11' E 132°14'0 0.2
2018-Feb-17 02:00N 34°11' E 132°14'510.4
2018-Feb-17 01:30N 34°09' E 132°20'711.8
2018-Feb-17 00:56N 34°05' E 132°27'810.2
2018-Feb-17 00:11N 34°04' E 132°36'210.5
2018-Feb-17 00:00N 34°05' E 132°38'7410.2
2018-Feb-16 16:46N 34°27' E 134°03'8 9.6
2018-Feb-16 15:53N 34°24' E 134°13'410.3
2018-Feb-16 15:29N 34°24' E 134°18'511.1
2018-Feb-16 15:00N 34°26' E 134°24'611.4
2018-Feb-16 14:30N 34°28' E 134°30'611.9
2018-Feb-16 14:00N 34°30' E 134°37'612.5
2018-Feb-16 13:30N 34°33' E 134°44'713.4
2018-Feb-16 13:00N 34°35' E 134°52'713.8
2018-Feb-16 12:30N 34°38' E 134°59'713.5
2018-Feb-16 12:00N 34°36' E 135°08'612.5
2018-Feb-16 11:31N 34°38' E 135°15'1 2.8
2018-Feb-16 11:00N 34°39' E 135°15'0 0.0
2018-Feb-16 10:30N 34°39' E 135°15'0 0.0
2018-Feb-16 10:00N 34°39' E 135°15'0 0.0
2018-Feb-16 09:30N 34°39' E 135°15'0 0.0
2018-Feb-16 09:00N 34°39' E 135°15'0 0.0
2018-Feb-16 08:30N 34°39' E 135°15'0 0.0
2018-Feb-16 08:00N 34°39' E 135°15'0 0.0
2018-Feb-16 07:30N 34°39' E 135°15'2 4.2
2018-Feb-16 07:00N 34°38' E 135°16'1 1.1
2018-Feb-16 06:30N 34°37' E 135°16'0 0.9
2018-Feb-16 06:00N 34°37' E 135°15'611.3
2018-Feb-16 05:31N 34°35' E 135°09'714.4
2018-Feb-16 05:01N 34°37' E 135°00'815.0
2018-Feb-16 04:31N 34°34' E 134°52'713.2
2018-Feb-16 04:01N 34°32' E 134°44'713.1
2018-Feb-16 03:30N 34°29' E 134°37'713.1
2018-Feb-16 03:00N 34°27' E 134°30'713.2
2018-Feb-16 02:30N 34°24' E 134°22'612.8
2018-Feb-16 02:00N 34°24' E 134°15'1711.4
2018-Feb-16 00:32N 34°24' E 133°54'010.7
2018-Feb-16 00:29N 34°23' E 133°54'711.3
2018-Feb-15 23:50N 34°20' E 133°46'911.7
2018-Feb-15 23:05N 34°17' E 133°36'212.7
2018-Feb-15 22:55N 34°16' E 133°33'3811.3
2018-Feb-15 19:32N 34°06' E 132°49'111.4
2018-Feb-15 19:29N 34°05' E 132°48'611.8
2018-Feb-15 19:01N 34°00' E 132°45'510.9
2018-Feb-15 18:30N 33°56' E 132°41'511.0
2018-Feb-15 18:00N 33°53' E 132°35'611.4
2018-Feb-15 17:27N 33°51' E 132°28'511.5
2018-Feb-15 17:00N 33°50' E 132°22'612.0
2018-Feb-15 16:27N 33°50' E 132°14'511.9
2018-Feb-15 16:00N 33°48' E 132°08'612.2
2018-Feb-15 15:31N 33°45' E 132°02'713.6
2018-Feb-15 15:00N 33°46' E 131°53'714.0
2018-Feb-15 14:30N 33°47' E 131°45'714.1
2018-Feb-15 14:00N 33°49' E 131°37'714.0
2018-Feb-15 13:30N 33°50' E 131°29'713.4
2018-Feb-15 13:00N 33°51' E 131°21'613.2
2018-Feb-15 12:30N 33°53' E 131°13'613.0
2018-Feb-15 12:00N 33°55' E 131°06'5 9.6
2018-Feb-15 11:30N 33°58' E 131°01'0 0.0
2018-Feb-15 11:00N 33°58' E 131°01'0 0.0
2018-Feb-15 10:30N 33°58' E 131°01'0 0.0
2018-Feb-15 10:00N 33°58' E 131°01'4 8.6
2018-Feb-15 09:30N 33°56' E 131°05'713.1
2018-Feb-15 08:59N 33°53' E 131°13'612.1
2018-Feb-15 08:30N 33°54' E 131°19'713.0
2018-Feb-15 08:00N 33°57' E 131°27'612.7
2018-Feb-15 07:30N 33°60' E 131°33'1 1.4
2018-Feb-15 06:55N 34°01' E 131°34'0 0.0
2018-Feb-15 06:25N 34°01' E 131°34'0 0.0
2018-Feb-15 05:49N 34°01' E 131°34'0 0.2
2018-Feb-15 05:30N 34°01' E 131°34'3 6.3
2018-Feb-15 05:00N 33°58' E 131°35'511.0
2018-Feb-15 04:30N 33°55' E 131°41'610.9
2018-Feb-15 04:00N 33°51' E 131°46'610.8
2018-Feb-15 03:27N 33°48' E 131°52'510.8
2018-Feb-15 03:00N 33°46' E 131°57'611.3
2018-Feb-15 02:30N 33°46' E 132°04'711.8
2018-Feb-15 01:56N 33°49' E 132°11'511.4
2018-Feb-15 01:30N 33°50' E 132°17'611.5
2018-Feb-15 01:00N 33°51' E 132°24'510.9
2018-Feb-15 00:30N 33°55' E 132°29'510.6
2018-Feb-14 23:59N 33°58' E 132°34'510.9
2018-Feb-14 23:29N 34°02' E 132°39'7210.2
2018-Feb-14 16:28N 34°26' E 134°01'7 9.4
2018-Feb-14 15:46N 34°26' E 134°09'3 9.9
2018-Feb-14 15:28N 34°25' E 134°12'510.1
2018-Feb-14 15:00N 34°25' E 134°18'611.4
2018-Feb-14 14:30N 34°27' E 134°24'611.8
2018-Feb-14 14:00N 34°29' E 134°31'611.6
2018-Feb-14 13:30N 34°31' E 134°38'611.7
2018-Feb-14 13:00N 34°33' E 134°44'612.2
2018-Feb-14 12:30N 34°35' E 134°51'612.6
2018-Feb-14 12:00N 34°37' E 134°58'612.2
2018-Feb-14 11:30N 34°36' E 135°06'612.0
2018-Feb-14 11:00N 34°37' E 135°13'2 5.0
2018-Feb-14 10:30N 34°39' E 135°15'0 0.0
2018-Feb-14 09:58N 34°39' E 135°15'0 0.0
2018-Feb-14 09:28N 34°39' E 135°15'0 0.0
2018-Feb-14 08:58N 34°39' E 135°15'0 0.0
2018-Feb-14 08:28N 34°39' E 135°15'0 0.0
2018-Feb-14 07:58N 34°39' E 135°15'0 0.0
2018-Feb-14 07:28N 34°39' E 135°15'0 0.0
2018-Feb-14 06:58N 34°39' E 135°15'0 0.0
2018-Feb-14 06:28N 34°39' E 135°15'0 0.0
2018-Feb-14 06:00N 34°39' E 135°15'1 2.7
2018-Feb-14 05:31N 34°38' E 135°16'611.5
2018-Feb-14 05:00N 34°36' E 135°10'611.8
2018-Feb-14 04:31N 34°36' E 135°03'713.0
2018-Feb-14 04:00N 34°35' E 134°55'612.5
2018-Feb-14 03:30N 34°33' E 134°48'611.6
2018-Feb-14 03:00N 34°31' E 134°41'612.0
2018-Feb-14 02:30N 34°28' E 134°35'611.9
2018-Feb-14 02:00N 34°26' E 134°28'611.8
2018-Feb-14 01:30N 34°24' E 134°21'611.7
2018-Feb-14 00:57N 34°24' E 134°13'72 9.9
2018-Feb-13 17:41N 34°04' E 132°49'210.9
2018-Feb-13 17:29N 34°03' E 132°48'510.5
2018-Feb-13 16:59N 33°58' E 132°44'5 9.8
2018-Feb-13 16:30N 33°55' E 132°40'510.0
2018-Feb-13 16:00N 33°53' E 132°35'610.8
2018-Feb-13 15:27N 33°51' E 132°28'510.7
2018-Feb-13 15:00N 33°50' E 132°22'711.0
2018-Feb-13 14:21N 33°49' E 132°13'410.8
2018-Feb-13 14:00N 33°48' E 132°09'511.1
2018-Feb-13 13:30N 33°46' E 132°03'611.8
2018-Feb-13 12:58N 33°46' E 131°56'511.9
2018-Feb-13 12:30N 33°46' E 131°49'612.0
2018-Feb-13 12:00N 33°47' E 131°42'612.0
2018-Feb-13 11:30N 33°48' E 131°35'611.7
2018-Feb-13 11:00N 33°50' E 131°28'611.4
2018-Feb-13 10:30N 33°51' E 131°21'510.9
2018-Feb-13 10:00N 33°52' E 131°15'4 8.2
2018-Feb-13 09:30N 33°56' E 131°14'0 0.0
2018-Feb-13 08:59N 33°56' E 131°14'0 0.0
2018-Feb-13 08:29N 33°56' E 131°14'0 0.0
2018-Feb-13 07:59N 33°56' E 131°14'0 0.0
2018-Feb-13 07:29N 33°56' E 131°14'0 0.0
2018-Feb-13 06:59N 33°56' E 131°14'3 5.4
2018-Feb-13 06:30N 33°55' E 131°11'611.8
2018-Feb-13 06:00N 33°56' E 131°04'4 7.5
2018-Feb-13 05:30N 33°58' E 131°00'0 0.0
2018-Feb-13 05:00N 33°58' E 131°00'0 0.0
2018-Feb-13 04:27N 33°58' E 131°00'0 0.0
2018-Feb-13 04:00N 33°58' E 131°00'0 0.0
2018-Feb-13 03:30N 33°58' E 131°00'2 4.9
2018-Feb-13 03:00N 33°57' E 130°57'4 8.3
2018-Feb-13 02:31N 33°55' E 130°54'611.4
2018-Feb-13 02:00N 33°57' E 130°48'2 4.0
2018-Feb-13 01:30N 33°56' E 130°46'2 3.4
2018-Feb-13 01:00N 33°57' E 130°47'510.3
2018-Feb-13 00:30N 33°56' E 130°53'510.3
2018-Feb-13 00:00N 33°58' E 130°58'612.0
2018-Feb-12 23:30N 33°57' E 131°05'611.9
2018-Feb-12 23:00N 33°54' E 131°11'  

Dump ship's entire track history